sensor_id;sensor_type;location;lat;lon;timestamp;P1;durP1;ratioP1;P2;durP2;ratioP2
15699;SDS011;7950;42.744;23.174;2023-02-01T00:00:30;5.63;;;4.80;;
15699;SDS011;7950;42.744;23.174;2023-02-01T00:03:00;4.73;;;4.23;;
15699;SDS011;7950;42.744;23.174;2023-02-01T00:05:30;5.33;;;4.33;;
15699;SDS011;7950;42.744;23.174;2023-02-01T00:07:59;5.07;;;4.57;;
15699;SDS011;7950;42.744;23.174;2023-02-01T00:10:27;6.53;;;4.53;;
15699;SDS011;7950;42.744;23.174;2023-02-01T00:12:56;5.10;;;4.60;;
15699;SDS011;7950;42.744;23.174;2023-02-01T00:15:24;9.20;;;6.30;;
15699;SDS011;7950;42.744;23.174;2023-02-01T00:17:53;5.70;;;4.57;;
15699;SDS011;7950;42.744;23.174;2023-02-01T00:20:22;5.53;;;4.63;;
15699;SDS011;7950;42.744;23.174;2023-02-01T00:22:52;4.53;;;4.13;;
15699;SDS011;7950;42.744;23.174;2023-02-01T00:25:21;6.60;;;4.67;;
15699;SDS011;7950;42.744;23.174;2023-02-01T00:27:49;4.50;;;4.10;;
15699;SDS011;7950;42.744;23.174;2023-02-01T00:30:23;4.40;;;4.00;;
15699;SDS011;7950;42.744;23.174;2023-02-01T00:32:51;5.20;;;4.23;;
15699;SDS011;7950;42.744;23.174;2023-02-01T00:35:20;5.13;;;3.83;;
15699;SDS011;7950;42.744;23.174;2023-02-01T00:37:48;4.97;;;3.70;;
15699;SDS011;7950;42.744;23.174;2023-02-01T00:40:18;3.80;;;3.50;;
15699;SDS011;7950;42.744;23.174;2023-02-01T00:42:47;6.27;;;4.10;;
15699;SDS011;7950;42.744;23.174;2023-02-01T00:45:16;3.80;;;3.40;;
15699;SDS011;7950;42.744;23.174;2023-02-01T00:47:44;4.57;;;4.10;;
15699;SDS011;7950;42.744;23.174;2023-02-01T00:50:13;5.97;;;4.10;;
15699;SDS011;7950;42.744;23.174;2023-02-01T00:52:42;4.40;;;3.70;;
15699;SDS011;7950;42.744;23.174;2023-02-01T00:55:11;4.93;;;4.13;;
15699;SDS011;7950;42.744;23.174;2023-02-01T00:57:41;4.63;;;3.93;;
15699;SDS011;7950;42.744;23.174;2023-02-01T01:00:09;6.03;;;4.40;;
15699;SDS011;7950;42.744;23.174;2023-02-01T01:02:39;7.93;;;4.77;;
15699;SDS011;7950;42.744;23.174;2023-02-01T01:05:08;6.90;;;4.50;;
15699;SDS011;7950;42.744;23.174;2023-02-01T01:07:37;6.23;;;4.03;;
15699;SDS011;7950;42.744;23.174;2023-02-01T01:10:07;6.83;;;4.33;;
15699;SDS011;7950;42.744;23.174;2023-02-01T01:15:35;7.07;;;4.70;;
15699;SDS011;7950;42.744;23.174;2023-02-01T01:18:04;7.47;;;4.47;;
15699;SDS011;7950;42.744;23.174;2023-02-01T01:20:34;7.37;;;3.80;;
15699;SDS011;7950;42.744;23.174;2023-02-01T01:23:05;5.23;;;4.00;;
15699;SDS011;7950;42.744;23.174;2023-02-01T01:25:36;4.87;;;3.43;;
15699;SDS011;7950;42.744;23.174;2023-02-01T01:28:07;7.13;;;3.50;;
15699;SDS011;7950;42.744;23.174;2023-02-01T01:30:36;5.30;;;3.57;;
15699;SDS011;7950;42.744;23.174;2023-02-01T01:33:04;5.00;;;3.47;;
15699;SDS011;7950;42.744;23.174;2023-02-01T01:35:33;3.70;;;3.30;;
15699;SDS011;7950;42.744;23.174;2023-02-01T01:38:09;3.50;;;3.20;;
15699;SDS011;7950;42.744;23.174;2023-02-01T01:40:38;3.57;;;3.10;;
15699;SDS011;7950;42.744;23.174;2023-02-01T01:43:13;4.37;;;3.10;;
15699;SDS011;7950;42.744;23.174;2023-02-01T01:45:43;4.50;;;3.43;;
15699;SDS011;7950;42.744;23.174;2023-02-01T01:48:12;3.83;;;3.43;;
15699;SDS011;7950;42.744;23.174;2023-02-01T01:50:48;3.70;;;3.30;;
15699;SDS011;7950;42.744;23.174;2023-02-01T01:53:37;4.50;;;3.40;;
15699;SDS011;7950;42.744;23.174;2023-02-01T01:56:12;5.20;;;3.50;;
15699;SDS011;7950;42.744;23.174;2023-02-01T01:58:43;3.57;;;3.17;;
15699;SDS011;7950;42.744;23.174;2023-02-01T02:01:12;3.33;;;3.03;;
15699;SDS011;7950;42.744;23.174;2023-02-01T02:03:41;3.63;;;3.03;;
15699;SDS011;7950;42.744;23.174;2023-02-01T02:06:15;3.77;;;3.00;;
15699;SDS011;7950;42.744;23.174;2023-02-01T02:11:51;4.97;;;3.17;;
15699;SDS011;7950;42.744;23.174;2023-02-01T02:14:22;3.50;;;2.50;;
15699;SDS011;7950;42.744;23.174;2023-02-01T02:16:57;3.83;;;3.13;;
15699;SDS011;7950;42.744;23.174;2023-02-01T02:23:14;5.10;;;3.67;;
15699;SDS011;7950;42.744;23.174;2023-02-01T02:26:40;3.90;;;3.10;;
15699;SDS011;7950;42.744;23.174;2023-02-01T02:29:54;3.80;;;3.50;;
15699;SDS011;7950;42.744;23.174;2023-02-01T02:36:15;3.40;;;3.00;;
15699;SDS011;7950;42.744;23.174;2023-02-01T02:38:52;4.70;;;3.60;;
15699;SDS011;7950;42.744;23.174;2023-02-01T02:41:33;3.87;;;3.20;;
15699;SDS011;7950;42.744;23.174;2023-02-01T02:44:35;5.50;;;3.33;;
15699;SDS011;7950;42.744;23.174;2023-02-01T02:47:34;5.43;;;3.70;;
15699;SDS011;7950;42.744;23.174;2023-02-01T02:50:17;6.07;;;3.97;;
15699;SDS011;7950;42.744;23.174;2023-02-01T02:53:13;4.70;;;3.17;;
15699;SDS011;7950;42.744;23.174;2023-02-01T02:56:05;5.67;;;2.87;;
15699;SDS011;7950;42.744;23.174;2023-02-01T02:58:55;3.67;;;3.00;;
15699;SDS011;7950;42.744;23.174;2023-02-01T03:01:42;7.13;;;4.17;;
15699;SDS011;7950;42.744;23.174;2023-02-01T03:04:29;5.60;;;3.60;;
15699;SDS011;7950;42.744;23.174;2023-02-01T03:07:09;4.90;;;3.47;;
15699;SDS011;7950;42.744;23.174;2023-02-01T03:09:42;6.03;;;3.20;;
15699;SDS011;7950;42.744;23.174;2023-02-01T03:12:16;4.00;;;3.00;;
15699;SDS011;7950;42.744;23.174;2023-02-01T03:15:21;3.77;;;2.80;;
15699;SDS011;7950;42.744;23.174;2023-02-01T03:17:57;3.93;;;2.90;;
15699;SDS011;7950;42.744;23.174;2023-02-01T03:20:29;3.43;;;2.70;;
15699;SDS011;7950;42.744;23.174;2023-02-01T03:23:01;5.33;;;3.77;;
15699;SDS011;7950;42.744;23.174;2023-02-01T03:25:33;4.00;;;2.93;;
15699;SDS011;7950;42.744;23.174;2023-02-01T03:28:04;3.80;;;2.90;;
15699;SDS011;7950;42.744;23.174;2023-02-01T03:30:37;5.40;;;3.20;;
15699;SDS011;7950;42.744;23.174;2023-02-01T03:33:10;5.30;;;2.93;;
15699;SDS011;7950;42.744;23.174;2023-02-01T03:36:26;2.60;;;2.40;;
15699;SDS011;7950;42.744;23.174;2023-02-01T03:45:00;5.83;;;3.40;;
15699;SDS011;7950;42.744;23.174;2023-02-01T03:47:37;6.03;;;3.07;;
15699;SDS011;7950;42.744;23.174;2023-02-01T03:50:31;4.53;;;3.00;;
15699;SDS011;7950;42.744;23.174;2023-02-01T03:53:06;5.30;;;3.30;;
15699;SDS011;7950;42.744;23.174;2023-02-01T03:55:41;4.00;;;2.97;;
15699;SDS011;7950;42.744;23.174;2023-02-01T03:58:11;3.20;;;2.90;;
15699;SDS011;7950;42.744;23.174;2023-02-01T04:00:46;3.20;;;2.70;;
15699;SDS011;7950;42.744;23.174;2023-02-01T04:03:20;6.43;;;3.13;;
15699;SDS011;7950;42.744;23.174;2023-02-01T04:05:49;4.50;;;3.00;;
15699;SDS011;7950;42.744;23.174;2023-02-01T04:08:18;3.80;;;2.53;;
15699;SDS011;7950;42.744;23.174;2023-02-01T04:10:49;4.73;;;3.27;;
15699;SDS011;7950;42.744;23.174;2023-02-01T04:13:25;3.50;;;2.80;;
15699;SDS011;7950;42.744;23.174;2023-02-01T04:15:53;4.57;;;2.83;;
15699;SDS011;7950;42.744;23.174;2023-02-01T04:18:22;6.50;;;3.97;;
15699;SDS011;7950;42.744;23.174;2023-02-01T04:20:50;3.63;;;2.77;;
15699;SDS011;7950;42.744;23.174;2023-02-01T04:23:19;8.13;;;4.00;;
15699;SDS011;7950;42.744;23.174;2023-02-01T04:25:49;6.50;;;3.50;;
15699;SDS011;7950;42.744;23.174;2023-02-01T04:28:21;4.97;;;3.50;;
15699;SDS011;7950;42.744;23.174;2023-02-01T04:30:49;5.30;;;3.40;;
15699;SDS011;7950;42.744;23.174;2023-02-01T04:33:18;4.83;;;3.23;;
15699;SDS011;7950;42.744;23.174;2023-02-01T04:35:46;4.97;;;3.20;;
15699;SDS011;7950;42.744;23.174;2023-02-01T04:38:15;4.43;;;3.50;;
15699;SDS011;7950;42.744;23.174;2023-02-01T04:40:46;6.00;;;3.23;;
15699;SDS011;7950;42.744;23.174;2023-02-01T04:43:27;5.90;;;3.73;;
15699;SDS011;7950;42.744;23.174;2023-02-01T04:45:55;9.70;;;3.80;;
15699;SDS011;7950;42.744;23.174;2023-02-01T04:48:24;5.93;;;3.43;;
15699;SDS011;7950;42.744;23.174;2023-02-01T04:50:52;4.60;;;3.40;;
15699;SDS011;7950;42.744;23.174;2023-02-01T04:53:21;4.13;;;3.73;;
15699;SDS011;7950;42.744;23.174;2023-02-01T04:55:49;5.77;;;3.90;;
15699;SDS011;7950;42.744;23.174;2023-02-01T04:58:18;5.33;;;4.20;;
15699;SDS011;7950;42.744;23.174;2023-02-01T05:00:48;5.43;;;4.07;;
15699;SDS011;7950;42.744;23.174;2023-02-01T05:03:17;7.33;;;4.17;;
15699;SDS011;7950;42.744;23.174;2023-02-01T05:05:47;4.70;;;3.30;;
15699;SDS011;7950;42.744;23.174;2023-02-01T05:08:15;5.30;;;3.43;;
15699;SDS011;7950;42.744;23.174;2023-02-01T05:10:44;4.53;;;3.20;;
15699;SDS011;7950;42.744;23.174;2023-02-01T05:13:13;6.27;;;3.60;;
15699;SDS011;7950;42.744;23.174;2023-02-01T05:16:00;6.80;;;4.13;;
15699;SDS011;7950;42.744;23.174;2023-02-01T05:18:28;7.47;;;4.00;;
15699;SDS011;7950;42.744;23.174;2023-02-01T05:20:57;7.37;;;4.53;;
15699;SDS011;7950;42.744;23.174;2023-02-01T05:23:25;5.70;;;4.00;;
15699;SDS011;7950;42.744;23.174;2023-02-01T05:25:57;10.50;;;5.00;;
15699;SDS011;7950;42.744;23.174;2023-02-01T05:28:28;11.53;;;5.90;;
15699;SDS011;7950;42.744;23.174;2023-02-01T05:33:51;4.23;;;3.60;;
15699;SDS011;7950;42.744;23.174;2023-02-01T05:36:19;5.60;;;4.50;;
15699;SDS011;7950;42.744;23.174;2023-02-01T05:38:54;4.70;;;4.23;;
15699;SDS011;7950;42.744;23.174;2023-02-01T05:41:23;3.73;;;3.30;;
15699;SDS011;7950;42.744;23.174;2023-02-01T05:43:51;4.63;;;3.57;;
15699;SDS011;7950;42.744;23.174;2023-02-01T05:46:20;7.00;;;3.93;;
15699;SDS011;7950;42.744;23.174;2023-02-01T05:49:01;10.57;;;5.73;;
15699;SDS011;7950;42.744;23.174;2023-02-01T05:51:29;5.00;;;3.60;;
15699;SDS011;7950;42.744;23.174;2023-02-01T05:53:58;5.80;;;4.20;;
15699;SDS011;7950;42.744;23.174;2023-02-01T05:56:26;8.70;;;5.37;;
15699;SDS011;7950;42.744;23.174;2023-02-01T06:01:51;4.60;;;3.63;;
15699;SDS011;7950;42.744;23.174;2023-02-01T06:04:20;8.33;;;3.60;;
15699;SDS011;7950;42.744;23.174;2023-02-01T06:06:48;4.73;;;3.30;;
15699;SDS011;7950;42.744;23.174;2023-02-01T06:09:17;3.80;;;2.93;;
15699;SDS011;7950;42.744;23.174;2023-02-01T06:11:46;4.10;;;3.40;;
15699;SDS011;7950;42.744;23.174;2023-02-01T06:14:14;3.03;;;2.77;;
15699;SDS011;7950;42.744;23.174;2023-02-01T06:16:44;5.27;;;2.80;;
15699;SDS011;7950;42.744;23.174;2023-02-01T06:19:14;3.47;;;3.17;;
15699;SDS011;7950;42.744;23.174;2023-02-01T06:21:43;5.40;;;3.10;;
15699;SDS011;7950;42.744;23.174;2023-02-01T06:24:12;5.87;;;3.13;;
15699;SDS011;7950;42.744;23.174;2023-02-01T06:26:40;4.30;;;3.17;;
15699;SDS011;7950;42.744;23.174;2023-02-01T06:29:09;7.03;;;3.90;;
15699;SDS011;7950;42.744;23.174;2023-02-01T06:31:38;6.27;;;4.30;;
15699;SDS011;7950;42.744;23.174;2023-02-01T06:34:09;4.40;;;3.20;;
15699;SDS011;7950;42.744;23.174;2023-02-01T06:36:39;6.10;;;3.40;;
15699;SDS011;7950;42.744;23.174;2023-02-01T06:39:07;8.63;;;4.63;;
15699;SDS011;7950;42.744;23.174;2023-02-01T06:44:29;8.83;;;6.50;;
15699;SDS011;7950;42.744;23.174;2023-02-01T06:46:58;12.53;;;7.57;;
15699;SDS011;7950;42.744;23.174;2023-02-01T06:52:27;6.30;;;5.03;;
15699;SDS011;7950;42.744;23.174;2023-02-01T06:54:56;6.37;;;4.60;;
15699;SDS011;7950;42.744;23.174;2023-02-01T06:57:24;7.50;;;4.57;;
15699;SDS011;7950;42.744;23.174;2023-02-01T06:59:56;5.50;;;4.70;;
15699;SDS011;7950;42.744;23.174;2023-02-01T07:02:25;7.20;;;3.80;;
15699;SDS011;7950;42.744;23.174;2023-02-01T07:04:54;3.90;;;3.20;;
15699;SDS011;7950;42.744;23.174;2023-02-01T07:07:22;4.33;;;3.57;;
15699;SDS011;7950;42.744;23.174;2023-02-01T07:09:52;5.47;;;3.97;;
15699;SDS011;7950;42.744;23.174;2023-02-01T07:12:21;5.47;;;3.67;;
15699;SDS011;7950;42.744;23.174;2023-02-01T07:14:49;5.73;;;3.77;;
15699;SDS011;7950;42.744;23.174;2023-02-01T07:17:18;4.07;;;3.17;;
15699;SDS011;7950;42.744;23.174;2023-02-01T07:19:46;5.97;;;3.33;;
15699;SDS011;7950;42.744;23.174;2023-02-01T07:22:15;4.07;;;3.53;;
15699;SDS011;7950;42.744;23.174;2023-02-01T07:24:44;6.37;;;3.40;;
15699;SDS011;7950;42.744;23.174;2023-02-01T07:30:08;6.80;;;3.47;;
15699;SDS011;7950;42.744;23.174;2023-02-01T07:32:38;6.43;;;4.07;;
15699;SDS011;7950;42.744;23.174;2023-02-01T07:35:07;3.57;;;3.10;;
15699;SDS011;7950;42.744;23.174;2023-02-01T07:37:36;2.90;;;2.60;;
15699;SDS011;7950;42.744;23.174;2023-02-01T07:40:05;4.83;;;3.37;;
15699;SDS011;7950;42.744;23.174;2023-02-01T07:42:35;11.03;;;4.97;;
15699;SDS011;7950;42.744;23.174;2023-02-01T07:45:07;9.03;;;3.87;;
15699;SDS011;7950;42.744;23.174;2023-02-01T07:47:46;5.20;;;3.53;;
15699;SDS011;7950;42.744;23.174;2023-02-01T07:50:15;4.77;;;3.50;;
15699;SDS011;7950;42.744;23.174;2023-02-01T07:52:44;5.20;;;3.50;;
15699;SDS011;7950;42.744;23.174;2023-02-01T07:55:13;5.80;;;3.20;;
15699;SDS011;7950;42.744;23.174;2023-02-01T07:57:41;5.70;;;3.97;;
15699;SDS011;7950;42.744;23.174;2023-02-01T08:00:12;4.90;;;3.40;;
15699;SDS011;7950;42.744;23.174;2023-02-01T08:02:59;5.83;;;3.53;;
15699;SDS011;7950;42.744;23.174;2023-02-01T08:05:28;8.83;;;4.60;;
15699;SDS011;7950;42.744;23.174;2023-02-01T08:07:56;7.50;;;3.60;;
15699;SDS011;7950;42.744;23.174;2023-02-01T08:10:25;7.43;;;4.10;;
15699;SDS011;7950;42.744;23.174;2023-02-01T08:12:57;6.13;;;4.00;;
15699;SDS011;7950;42.744;23.174;2023-02-01T08:15:29;5.80;;;4.10;;
15699;SDS011;7950;42.744;23.174;2023-02-01T08:17:57;5.80;;;4.10;;
15699;SDS011;7950;42.744;23.174;2023-02-01T08:20:28;9.37;;;4.20;;
15699;SDS011;7950;42.744;23.174;2023-02-01T08:22:57;8.40;;;4.10;;
15699;SDS011;7950;42.744;23.174;2023-02-01T08:25:26;4.37;;;3.10;;
15699;SDS011;7950;42.744;23.174;2023-02-01T08:27:54;6.77;;;4.70;;
15699;SDS011;7950;42.744;23.174;2023-02-01T08:33:18;6.20;;;4.20;;
15699;SDS011;7950;42.744;23.174;2023-02-01T08:35:46;6.17;;;3.47;;
15699;SDS011;7950;42.744;23.174;2023-02-01T08:38:15;5.67;;;3.60;;
15699;SDS011;7950;42.744;23.174;2023-02-01T08:40:43;5.70;;;3.47;;
15699;SDS011;7950;42.744;23.174;2023-02-01T08:43:15;4.50;;;3.03;;
15699;SDS011;7950;42.744;23.174;2023-02-01T08:48:40;4.20;;;3.03;;
15699;SDS011;7950;42.744;23.174;2023-02-01T08:51:10;3.77;;;3.20;;
15699;SDS011;7950;42.744;23.174;2023-02-01T08:53:40;7.10;;;3.33;;
15699;SDS011;7950;42.744;23.174;2023-02-01T08:56:10;5.30;;;3.50;;
15699;SDS011;7950;42.744;23.174;2023-02-01T08:58:41;5.23;;;3.80;;
15699;SDS011;7950;42.744;23.174;2023-02-01T09:01:12;7.37;;;3.90;;
15699;SDS011;7950;42.744;23.174;2023-02-01T09:03:43;5.53;;;2.70;;
15699;SDS011;7950;42.744;23.174;2023-02-01T09:06:13;3.33;;;2.97;;
15699;SDS011;7950;42.744;23.174;2023-02-01T09:08:42;6.00;;;2.70;;
15699;SDS011;7950;42.744;23.174;2023-02-01T09:11:12;3.50;;;2.90;;
15699;SDS011;7950;42.744;23.174;2023-02-01T09:13:43;5.73;;;3.13;;
15699;SDS011;7950;42.744;23.174;2023-02-01T09:16:14;4.40;;;3.17;;
15699;SDS011;7950;42.744;23.174;2023-02-01T09:18:43;4.90;;;3.17;;
15699;SDS011;7950;42.744;23.174;2023-02-01T09:21:31;5.37;;;3.40;;
15699;SDS011;7950;42.744;23.174;2023-02-01T09:24:00;7.50;;;3.43;;
15699;SDS011;7950;42.744;23.174;2023-02-01T09:26:30;7.63;;;3.50;;
15699;SDS011;7950;42.744;23.174;2023-02-01T09:28:59;3.73;;;2.60;;
15699;SDS011;7950;42.744;23.174;2023-02-01T09:31:31;5.60;;;3.30;;
15699;SDS011;7950;42.744;23.174;2023-02-01T09:34:00;5.50;;;3.50;;
15699;SDS011;7950;42.744;23.174;2023-02-01T09:36:28;8.80;;;3.50;;
15699;SDS011;7950;42.744;23.174;2023-02-01T09:38:57;11.10;;;4.23;;
15699;SDS011;7950;42.744;23.174;2023-02-01T09:41:31;4.97;;;3.53;;
15699;SDS011;7950;42.744;23.174;2023-02-01T09:44:14;5.17;;;3.10;;
15699;SDS011;7950;42.744;23.174;2023-02-01T09:47:16;4.07;;;3.10;;
15699;SDS011;7950;42.744;23.174;2023-02-01T09:49:49;5.43;;;3.40;;
15699;SDS011;7950;42.744;23.174;2023-02-01T09:52:25;7.53;;;3.70;;
15699;SDS011;7950;42.744;23.174;2023-02-01T09:58:06;4.60;;;3.70;;
15699;SDS011;7950;42.744;23.174;2023-02-01T10:00:46;5.07;;;3.43;;
15699;SDS011;7950;42.744;23.174;2023-02-01T10:03:21;4.03;;;3.53;;
15699;SDS011;7950;42.744;23.174;2023-02-01T10:05:59;3.63;;;3.33;;
15699;SDS011;7950;42.744;23.174;2023-02-01T10:09:30;6.80;;;3.47;;
15699;SDS011;7950;42.744;23.174;2023-02-01T10:12:19;6.13;;;3.50;;
15699;SDS011;7950;42.744;23.174;2023-02-01T10:18:29;5.97;;;3.37;;
15699;SDS011;7950;42.744;23.174;2023-02-01T10:21:57;4.60;;;2.90;;
15699;SDS011;7950;42.744;23.174;2023-02-01T10:24:36;3.93;;;2.90;;
15699;SDS011;7950;42.744;23.174;2023-02-01T10:27:13;4.40;;;3.10;;
15699;SDS011;7950;42.744;23.174;2023-02-01T10:29:47;3.33;;;2.70;;
15699;SDS011;7950;42.744;23.174;2023-02-01T10:32:22;3.40;;;2.10;;
15699;SDS011;7950;42.744;23.174;2023-02-01T10:35:18;3.23;;;2.30;;
15699;SDS011;7950;42.744;23.174;2023-02-01T10:37:54;4.37;;;3.33;;
15699;SDS011;7950;42.744;23.174;2023-02-01T10:40:29;4.53;;;2.77;;
15699;SDS011;7950;42.744;23.174;2023-02-01T10:42:58;4.10;;;2.23;;
15699;SDS011;7950;42.744;23.174;2023-02-01T10:45:30;4.90;;;2.73;;
15699;SDS011;7950;42.744;23.174;2023-02-01T10:48:00;3.10;;;2.20;;
15699;SDS011;7950;42.744;23.174;2023-02-01T10:50:35;4.83;;;2.50;;
15699;SDS011;7950;42.744;23.174;2023-02-01T10:53:10;2.63;;;2.10;;
15699;SDS011;7950;42.744;23.174;2023-02-01T10:55:48;2.90;;;1.73;;
15699;SDS011;7950;42.744;23.174;2023-02-01T10:58:20;2.37;;;1.93;;
15699;SDS011;7950;42.744;23.174;2023-02-01T11:00:56;4.63;;;3.00;;
15699;SDS011;7950;42.744;23.174;2023-02-01T11:03:39;2.47;;;1.40;;
15699;SDS011;7950;42.744;23.174;2023-02-01T11:06:22;3.57;;;1.73;;
15699;SDS011;7950;42.744;23.174;2023-02-01T11:08:56;2.07;;;1.87;;
15699;SDS011;7950;42.744;23.174;2023-02-01T11:11:28;3.87;;;2.20;;
15699;SDS011;7950;42.744;23.174;2023-02-01T11:13:57;2.37;;;1.80;;
15699;SDS011;7950;42.744;23.174;2023-02-01T11:16:28;3.97;;;2.03;;
15699;SDS011;7950;42.744;23.174;2023-02-01T11:19:02;2.03;;;1.70;;
15699;SDS011;7950;42.744;23.174;2023-02-01T11:21:33;2.27;;;1.80;;
15699;SDS011;7950;42.744;23.174;2023-02-01T11:27:17;3.93;;;1.80;;
15699;SDS011;7950;42.744;23.174;2023-02-01T11:29:54;1.53;;;1.30;;
15699;SDS011;7950;42.744;23.174;2023-02-01T11:32:44;6.00;;;3.00;;
15699;SDS011;7950;42.744;23.174;2023-02-01T11:35:16;2.47;;;1.70;;
15699;SDS011;7950;42.744;23.174;2023-02-01T11:37:52;3.80;;;2.17;;
15699;SDS011;7950;42.744;23.174;2023-02-01T11:40:27;2.87;;;2.40;;
15699;SDS011;7950;42.744;23.174;2023-02-01T11:43:07;4.10;;;2.13;;
15699;SDS011;7950;42.744;23.174;2023-02-01T11:45:53;3.90;;;2.50;;
15699;SDS011;7950;42.744;23.174;2023-02-01T11:48:26;2.70;;;1.50;;
15699;SDS011;7950;42.744;23.174;2023-02-01T11:51:04;2.03;;;1.40;;
15699;SDS011;7950;42.744;23.174;2023-02-01T11:53:58;2.97;;;1.90;;
15699;SDS011;7950;42.744;23.174;2023-02-01T11:56:47;3.23;;;2.00;;
15699;SDS011;7950;42.744;23.174;2023-02-01T11:59:36;2.50;;;1.60;;
15699;SDS011;7950;42.744;23.174;2023-02-01T12:02:34;2.77;;;2.10;;
15699;SDS011;7950;42.744;23.174;2023-02-01T12:05:48;3.07;;;1.73;;
15699;SDS011;7950;42.744;23.174;2023-02-01T12:08:30;2.97;;;1.40;;
15699;SDS011;7950;42.744;23.174;2023-02-01T12:11:25;3.20;;;2.00;;
15699;SDS011;7950;42.744;23.174;2023-02-01T12:14:14;3.00;;;1.70;;
15699;SDS011;7950;42.744;23.174;2023-02-01T12:17:30;2.57;;;2.00;;
15699;SDS011;7950;42.744;23.174;2023-02-01T12:20:34;2.77;;;2.03;;
15699;SDS011;7950;42.744;23.174;2023-02-01T12:23:39;2.73;;;2.13;;
15699;SDS011;7950;42.744;23.174;2023-02-01T12:26:50;4.13;;;2.77;;
15699;SDS011;7950;42.744;23.174;2023-02-01T12:29:47;2.43;;;1.63;;
15699;SDS011;7950;42.744;23.174;2023-02-01T12:32:33;4.33;;;2.40;;
15699;SDS011;7950;42.744;23.174;2023-02-01T12:35:26;2.87;;;1.70;;
15699;SDS011;7950;42.744;23.174;2023-02-01T12:38:16;2.33;;;1.87;;
15699;SDS011;7950;42.744;23.174;2023-02-01T12:41:14;2.47;;;1.90;;
15699;SDS011;7950;42.744;23.174;2023-02-01T12:47:14;1.93;;;1.60;;
15699;SDS011;7950;42.744;23.174;2023-02-01T12:49:53;3.43;;;2.40;;
15699;SDS011;7950;42.744;23.174;2023-02-01T12:52:30;3.27;;;2.23;;
15699;SDS011;7950;42.744;23.174;2023-02-01T12:55:10;2.10;;;1.90;;
15699;SDS011;7950;42.744;23.174;2023-02-01T12:57:50;3.40;;;2.00;;
15699;SDS011;7950;42.744;23.174;2023-02-01T13:00:26;2.93;;;1.80;;
15699;SDS011;7950;42.744;23.174;2023-02-01T13:03:03;3.73;;;2.10;;
15699;SDS011;7950;42.744;23.174;2023-02-01T13:05:44;2.90;;;1.83;;
15699;SDS011;7950;42.744;23.174;2023-02-01T13:08:22;3.43;;;2.00;;
15699;SDS011;7950;42.744;23.174;2023-02-01T13:10:57;2.10;;;1.73;;
15699;SDS011;7950;42.744;23.174;2023-02-01T13:13:32;3.53;;;2.03;;
15699;SDS011;7950;42.744;23.174;2023-02-01T13:16:16;3.23;;;2.03;;
15699;SDS011;7950;42.744;23.174;2023-02-01T13:18:56;2.70;;;1.90;;
15699;SDS011;7950;42.744;23.174;2023-02-01T13:21:34;3.60;;;2.53;;
15699;SDS011;7950;42.744;23.174;2023-02-01T13:24:08;3.87;;;1.70;;
15699;SDS011;7950;42.744;23.174;2023-02-01T13:27:00;2.07;;;1.60;;
15699;SDS011;7950;42.744;23.174;2023-02-01T13:29:29;2.87;;;1.53;;
15699;SDS011;7950;42.744;23.174;2023-02-01T13:35:34;2.03;;;1.63;;
15699;SDS011;7950;42.744;23.174;2023-02-01T13:38:30;3.50;;;1.90;;
15699;SDS011;7950;42.744;23.174;2023-02-01T13:41:49;5.83;;;3.43;;
15699;SDS011;7950;42.744;23.174;2023-02-01T13:44:26;4.57;;;2.43;;
15699;SDS011;7950;42.744;23.174;2023-02-01T13:47:00;3.70;;;2.40;;
15699;SDS011;7950;42.744;23.174;2023-02-01T13:49:38;3.63;;;2.20;;
15699;SDS011;7950;42.744;23.174;2023-02-01T13:52:17;2.67;;;2.00;;
15699;SDS011;7950;42.744;23.174;2023-02-01T13:55:02;3.70;;;1.90;;
15699;SDS011;7950;42.744;23.174;2023-02-01T13:57:51;2.00;;;1.80;;
15699;SDS011;7950;42.744;23.174;2023-02-01T14:00:34;3.30;;;2.40;;
15699;SDS011;7950;42.744;23.174;2023-02-01T14:03:42;2.50;;;2.00;;
15699;SDS011;7950;42.744;23.174;2023-02-01T14:06:32;6.17;;;2.17;;
15699;SDS011;7950;42.744;23.174;2023-02-01T14:09:31;2.80;;;2.50;;
15699;SDS011;7950;42.744;23.174;2023-02-01T14:15:32;4.93;;;2.60;;
15699;SDS011;7950;42.744;23.174;2023-02-01T14:18:01;3.30;;;2.63;;
15699;SDS011;7950;42.744;23.174;2023-02-01T14:21:15;4.30;;;2.70;;
15699;SDS011;7950;42.744;23.174;2023-02-01T14:23:55;4.17;;;2.40;;
15699;SDS011;7950;42.744;23.174;2023-02-01T14:26:28;5.77;;;3.57;;
15699;SDS011;7950;42.744;23.174;2023-02-01T14:32:04;2.27;;;1.80;;
15699;SDS011;7950;42.744;23.174;2023-02-01T14:37:58;3.60;;;2.60;;
15699;SDS011;7950;42.744;23.174;2023-02-01T14:40:30;7.93;;;3.50;;
15699;SDS011;7950;42.744;23.174;2023-02-01T14:43:00;7.87;;;3.30;;
15699;SDS011;7950;42.744;23.174;2023-02-01T14:48:43;10.43;;;3.60;;
15699;SDS011;7950;42.744;23.174;2023-02-01T14:51:15;7.47;;;3.53;;
15699;SDS011;7950;42.744;23.174;2023-02-01T14:53:48;8.77;;;3.20;;
15699;SDS011;7950;42.744;23.174;2023-02-01T14:56:18;11.47;;;4.70;;
15699;SDS011;7950;42.744;23.174;2023-02-01T14:58:49;6.17;;;3.97;;
15699;SDS011;7950;42.744;23.174;2023-02-01T15:04:24;5.60;;;3.00;;
15699;SDS011;7950;42.744;23.174;2023-02-01T15:06:55;9.00;;;5.63;;
15699;SDS011;7950;42.744;23.174;2023-02-01T15:09:42;11.83;;;6.50;;
15699;SDS011;7950;42.744;23.174;2023-02-01T15:15:12;8.50;;;4.23;;
15699;SDS011;7950;42.744;23.174;2023-02-01T15:17:54;6.37;;;4.03;;
15699;SDS011;7950;42.744;23.174;2023-02-01T15:20:25;18.63;;;9.23;;
15699;SDS011;7950;42.744;23.174;2023-02-01T15:22:57;6.77;;;4.13;;
15699;SDS011;7950;42.744;23.174;2023-02-01T15:25:30;3.80;;;2.40;;
15699;SDS011;7950;42.744;23.174;2023-02-01T15:28:02;3.17;;;2.10;;
15699;SDS011;7950;42.744;23.174;2023-02-01T15:30:33;6.53;;;3.50;;
15699;SDS011;7950;42.744;23.174;2023-02-01T15:33:05;4.63;;;3.00;;
15699;SDS011;7950;42.744;23.174;2023-02-01T15:35:39;5.33;;;2.93;;
15699;SDS011;7950;42.744;23.174;2023-02-01T15:41:13;10.70;;;5.57;;
15699;SDS011;7950;42.744;23.174;2023-02-01T15:43:44;6.30;;;4.40;;
15699;SDS011;7950;42.744;23.174;2023-02-01T15:46:34;6.30;;;3.50;;
15699;SDS011;7950;42.744;23.174;2023-02-01T15:49:13;4.87;;;3.60;;
15699;SDS011;7950;42.744;23.174;2023-02-01T15:51:53;6.47;;;4.03;;
15699;SDS011;7950;42.744;23.174;2023-02-01T15:54:25;4.57;;;3.60;;
15699;SDS011;7950;42.744;23.174;2023-02-01T15:57:00;6.20;;;3.30;;
15699;SDS011;7950;42.744;23.174;2023-02-01T15:59:31;4.10;;;2.80;;
15699;SDS011;7950;42.744;23.174;2023-02-01T16:05:03;7.57;;;4.50;;
15699;SDS011;7950;42.744;23.174;2023-02-01T16:07:55;13.07;;;5.60;;
15699;SDS011;7950;42.744;23.174;2023-02-01T16:10:31;8.10;;;4.53;;
15699;SDS011;7950;42.744;23.174;2023-02-01T16:13:08;4.73;;;3.07;;
15699;SDS011;7950;42.744;23.174;2023-02-01T16:15:37;3.03;;;2.27;;
15699;SDS011;7950;42.744;23.174;2023-02-01T16:18:07;3.93;;;2.63;;
15699;SDS011;7950;42.744;23.174;2023-02-01T16:23:31;4.23;;;3.10;;
15699;SDS011;7950;42.744;23.174;2023-02-01T16:25:59;2.87;;;2.67;;
15699;SDS011;7950;42.744;23.174;2023-02-01T16:28:29;3.63;;;2.90;;
15699;SDS011;7950;42.744;23.174;2023-02-01T16:30:58;3.30;;;2.97;;
15699;SDS011;7950;42.744;23.174;2023-02-01T16:33:27;3.80;;;2.97;;
15699;SDS011;7950;42.744;23.174;2023-02-01T16:35:56;5.57;;;4.43;;
15699;SDS011;7950;42.744;23.174;2023-02-01T16:38:28;9.10;;;5.70;;
15699;SDS011;7950;42.744;23.174;2023-02-01T16:40:57;12.43;;;6.67;;
15699;SDS011;7950;42.744;23.174;2023-02-01T16:46:22;8.77;;;5.27;;
15699;SDS011;7950;42.744;23.174;2023-02-01T16:48:55;5.87;;;4.70;;
15699;SDS011;7950;42.744;23.174;2023-02-01T16:51:35;8.73;;;4.70;;
15699;SDS011;7950;42.744;23.174;2023-02-01T16:54:08;6.70;;;4.07;;
15699;SDS011;7950;42.744;23.174;2023-02-01T16:56:37;9.93;;;5.30;;
15699;SDS011;7950;42.744;23.174;2023-02-01T16:59:11;8.23;;;5.47;;
15699;SDS011;7950;42.744;23.174;2023-02-01T17:01:59;4.97;;;3.70;;
15699;SDS011;7950;42.744;23.174;2023-02-01T17:04:28;7.80;;;4.13;;